Time;durP1;ratioP1;P1;durP2;ratioP2;P2;SDS_P1;SDS_P2;PMS_P1;PMS_P2;Temp;Humidity;BMP_temperature;BMP_pressure;BME280_temperature;BME280_humidity;BME280_pressure;Samples;Min_cycle;Max_cycle;Signal;HPM_P1;HPM_P2
2024/03/18 00:02:01;;;;;;;0.10;0.10;;;17.20;77.10;;;;;;4985163;28;20070;-80
2024/03/18 00:04:27;;;;;;;0.10;0.10;;;17.20;77.20;;;;;;4989389;28;20122;-80
2024/03/18 00:06:53;;;;;;;0.10;0.10;;;17.20;77.30;;;;;;4988500;28;20130;-80
2024/03/18 00:09:18;;;;;;;0.10;0.10;;;17.20;77.20;;;;;;4983102;28;20570;-80
2024/03/18 00:11:44;;;;;;;0.10;0.10;;;17.20;77.40;;;;;;5000584;28;20120;-80
2024/03/18 00:14:09;;;;;;;0.10;0.10;;;17.20;77.40;;;;;;4970492;28;20034;-81
2024/03/18 00:16:35;;;;;;;0.20;0.20;;;17.20;77.50;;;;;;4968291;28;20046;-80
2024/03/18 00:19:01;;;;;;;0.25;0.25;;;17.20;77.50;;;;;;5001693;28;20046;-80
2024/03/18 00:21:26;;;;;;;0.10;0.10;;;17.20;77.50;;;;;;4984555;28;20478;-81
2024/03/18 00:23:52;;;;;;;0.75;0.38;;;17.20;77.30;;;;;;4987781;28;20599;-81
2024/03/18 00:26:18;;;;;;;0.15;0.15;;;17.20;77.40;;;;;;4984530;28;20054;-80
2024/03/18 00:28:43;;;;;;;1.25;0.13;;;17.20;77.40;;;;;;4982860;28;20074;-81
2024/03/18 00:31:10;;;;;;;0.45;0.20;;;17.10;77.40;;;;;;4984842;28;20104;-80
2024/03/18 00:33:36;;;;;;;0.10;0.10;;;17.20;77.40;;;;;;4983861;28;20045;-80
2024/03/18 00:36:02;;;;;;;0.20;0.20;;;17.20;77.40;;;;;;4981560;28;20050;-80
2024/03/18 00:38:27;;;;;;;0.10;0.10;;;17.20;77.40;;;;;;4980805;28;20051;-80
2024/03/18 00:43:37;;;;;;;;;;;17.20;77.50;;;;;;4969392;28;20093;-80
2024/03/18 00:46:03;;;;;;;0.10;0.10;;;17.10;77.40;;;;;;4986967;28;19922;-80
2024/03/18 00:48:29;;;;;;;0.20;0.20;;;17.10;77.40;;;;;;4969632;28;20048;-80
2024/03/18 00:50:55;;;;;;;0.10;0.10;;;17.20;77.50;;;;;;4965331;28;20467;-81
2024/03/18 00:53:20;;;;;;;0.08;0.08;;;17.20;77.50;;;;;;4981558;28;20101;-81
2024/03/18 00:55:46;;;;;;;0.10;0.10;;;17.10;78.20;;;;;;4984533;28;20776;-81
2024/03/18 00:58:11;;;;;;;0.10;0.10;;;17.10;77.50;;;;;;4986409;28;20050;-81
2024/03/18 01:00:37;;;;;;;0.10;0.10;;;17.10;78.30;;;;;;4965627;28;20113;-80
2024/03/18 01:03:03;;;;;;;0.10;0.10;;;17.10;77.50;;;;;;4985202;28;20352;-81
2024/03/18 01:05:29;;;;;;;0.10;0.10;;;17.10;77.50;;;;;;4984706;28;20515;-75
2024/03/18 01:07:55;;;;;;;0.10;0.10;;;17.10;77.50;;;;;;4984629;28;20097;-76
2024/03/18 01:10:21;;;;;;;0.00;0.00;;;17.10;77.50;;;;;;4984884;28;20054;-75
2024/03/18 01:12:46;;;;;;;0.13;0.10;;;17.10;77.50;;;;;;4984897;28;20053;-76
2024/03/18 01:15:12;;;;;;;0.03;0.03;;;17.10;77.50;;;;;;4986396;28;20050;-76
2024/03/18 01:17:38;;;;;;;0.10;0.10;;;17.10;77.50;;;;;;4983564;28;20515;-76
2024/03/18 01:20:09;;;;;;;0.10;0.10;;;17.10;77.60;;;;;;4984714;28;20131;-76
2024/03/18 01:22:35;;;;;;;0.20;0.10;;;17.10;77.50;;;;;;4969250;28;20043;-76
2024/03/18 01:25:01;;;;;;;0.20;0.20;;;17.10;77.60;;;;;;4984662;28;20057;-76
2024/03/18 01:27:28;;;;;;;1.20;0.10;;;17.10;77.60;;;;;;4988934;28;20038;-76
2024/03/18 01:29:55;;;;;;;0.10;0.10;;;17.10;77.60;;;;;;4999314;28;20050;-76
2024/03/18 01:32:22;;;;;;;0.20;0.20;;;17.10;77.50;;;;;;4968283;28;20044;-76
2024/03/18 01:34:48;;;;;;;0.10;0.10;;;17.10;77.60;;;;;;4985273;28;20057;-76
2024/03/18 01:37:14;;;;;;;0.20;0.20;;;17.10;77.60;;;;;;4986102;28;20038;-76
2024/03/18 01:39:40;;;;;;;0.17;0.10;;;17.10;77.60;;;;;;4986976;28;20042;-76
2024/03/18 01:42:05;;;;;;;0.10;0.10;;;17.10;77.50;;;;;;4986201;28;20128;-76
2024/03/18 01:44:31;;;;;;;0.10;0.10;;;17.10;77.60;;;;;;4967371;28;20050;-75
2024/03/18 01:46:57;;;;;;;0.03;0.03;;;17.10;77.60;;;;;;4968034;28;20042;-76
2024/03/18 01:49:22;;;;;;;0.10;0.10;;;17.10;78.30;;;;;;4985701;28;20089;-76
2024/03/18 01:51:48;;;;;;;0.13;0.13;;;17.10;77.60;;;;;;4982286;28;20030;-76
2024/03/18 01:54:13;;;;;;;0.10;0.10;;;17.10;77.60;;;;;;4984915;28;20039;-76
2024/03/18 01:56:39;;;;;;;0.20;0.20;;;17.10;77.60;;;;;;4983449;28;20030;-77
2024/03/18 01:59:05;;;;;;;0.28;0.15;;;17.10;77.60;;;;;;4982633;28;20420;-76
2024/03/18 02:01:30;;;;;;;0.10;0.10;;;17.10;77.60;;;;;;4967009;28;20050;-76
2024/03/18 02:04:05;;;;;;;0.10;0.10;;;17.10;77.50;;;;;;4982702;28;20053;-76
2024/03/18 02:06:31;;;;;;;0.10;0.10;;;17.10;77.50;;;;;;4984210;28;20054;-75
2024/03/18 02:08:57;;;;;;;0.10;0.10;;;17.10;77.50;;;;;;4983622;28;20065;-75
2024/03/18 02:11:23;;;;;;;0.20;0.20;;;17.10;77.50;;;;;;4946390;28;20035;-75
2024/03/18 02:13:49;;;;;;;2.47;0.10;;;17.00;77.40;;;;;;4984422;28;20042;-75
2024/03/18 02:16:14;;;;;;;0.10;0.10;;;17.10;77.50;;;;;;5002263;28;20112;-75
2024/03/18 02:18:40;;;;;;;0.10;0.10;;;17.10;77.50;;;;;;4971542;28;20508;-76
2024/03/18 02:21:06;;;;;;;0.10;0.10;;;17.10;77.50;;;;;;4983344;28;20050;-76
2024/03/18 02:23:31;;;;;;;0.15;0.13;;;17.10;77.50;;;;;;5000660;28;20424;-76
2024/03/18 02:25:57;;;;;;;0.10;0.10;;;17.10;77.50;;;;;;4999177;28;20104;-76
2024/03/18 02:28:23;;;;;;;0.10;0.10;;;17.10;77.50;;;;;;4985167;28;20117;-76
2024/03/18 02:30:49;;;;;;;0.10;0.10;;;17.00;77.40;;;;;;4987331;28;20042;-76
2024/03/18 02:33:14;;;;;;;0.00;0.00;;;17.10;77.50;;;;;;4986020;28;20042;-76
2024/03/18 02:35:40;;;;;;;0.10;0.10;;;17.00;77.40;;;;;;4985691;28;20041;-76
2024/03/18 02:38:05;;;;;;;0.20;0.10;;;17.00;77.50;;;;;;4978396;28;20100;-76
2024/03/18 02:40:31;;;;;;;0.32;0.10;;;17.10;77.50;;;;;;4984294;28;20056;-76
2024/03/18 02:42:57;;;;;;;0.10;0.10;;;17.00;77.50;;;;;;4996712;28;20089;-76
2024/03/18 02:45:22;;;;;;;0.00;0.00;;;17.00;77.50;;;;;;4986083;28;20121;-76
2024/03/18 02:47:48;;;;;;;0.10;0.10;;;17.00;77.40;;;;;;4983668;28;20109;-76
2024/03/18 02:50:15;;;;;;;0.47;0.00;;;17.00;77.50;;;;;;4981219;28;20043;-76
2024/03/18 02:52:41;;;;;;;0.00;0.00;;;17.00;77.50;;;;;;4986213;28;20516;-75
2024/03/18 02:55:07;;;;;;;0.10;0.10;;;17.00;77.50;;;;;;4986688;28;20045;-75
2024/03/18 02:57:33;;;;;;;0.13;0.10;;;17.00;77.50;;;;;;4984742;28;20384;-75
2024/03/18 02:59:59;;;;;;;0.98;0.13;;;17.00;77.50;;;;;;4981659;28;20046;-76
2024/03/18 03:02:25;;;;;;;0.20;0.15;;;17.00;77.50;;;;;;4981640;28;20051;-76
2024/03/18 03:04:51;;;;;;;0.10;0.10;;;17.00;77.50;;;;;;4967374;28;20042;-76
2024/03/18 03:07:16;;;;;;;0.10;0.05;;;17.00;77.50;;;;;;4970706;28;20038;-76
2024/03/18 03:09:43;;;;;;;0.10;0.10;;;17.00;77.50;;;;;;5005468;28;20520;-76
2024/03/18 03:12:11;;;;;;;0.52;0.10;;;17.00;77.50;;;;;;4987276;28;20129;-76
2024/03/18 03:14:37;;;;;;;0.10;0.10;;;17.00;77.50;;;;;;4972065;28;20184;-76
2024/03/18 03:17:03;;;;;;;0.20;0.20;;;17.00;77.50;;;;;;4987164;28;20050;-76
2024/03/18 03:19:28;;;;;;;0.10;0.10;;;17.00;77.50;;;;;;4987867;28;20185;-76
2024/03/18 03:21:54;;;;;;;0.22;0.10;;;17.00;78.30;;;;;;5000102;28;20064;-76
2024/03/18 03:24:19;;;;;;;0.30;0.22;;;17.00;77.60;;;;;;4983867;28;20053;-76
2024/03/18 03:26:45;;;;;;;0.10;0.10;;;17.00;77.50;;;;;;4988273;28;20058;-76
2024/03/18 03:29:10;;;;;;;0.00;0.00;;;17.00;77.50;;;;;;4986554;28;20054;-76
2024/03/18 03:31:36;;;;;;;0.10;0.10;;;17.00;77.50;;;;;;4984267;28;20647;-76
2024/03/18 03:34:02;;;;;;;0.13;0.10;;;17.00;77.50;;;;;;4987677;28;20049;-76
2024/03/18 03:36:29;;;;;;;0.10;0.10;;;17.00;77.60;;;;;;4969542;28;20416;-76
2024/03/18 03:38:54;;;;;;;0.10;0.10;;;17.00;77.50;;;;;;4985990;28;20096;-76
2024/03/18 03:41:20;;;;;;;0.20;0.10;;;17.00;77.50;;;;;;4985905;28;20140;-75
2024/03/18 03:43:48;;;;;;;0.10;0.10;;;17.00;78.30;;;;;;4986381;28;20054;-75
2024/03/18 03:46:13;;;;;;;0.10;0.10;;;17.00;77.50;;;;;;5004391;28;20078;-75
2024/03/18 03:48:39;;;;;;;0.10;0.10;;;17.00;77.60;;;;;;4983810;28;20128;-75
2024/03/18 03:51:05;;;;;;;0.10;0.10;;;17.00;77.60;;;;;;4981513;28;22149;-75
2024/03/18 03:53:30;;;;;;;0.38;0.10;;;17.00;77.60;;;;;;4966899;28;20508;-75
2024/03/18 03:55:56;;;;;;;0.30;0.20;;;17.00;77.60;;;;;;4984888;28;20106;-75
2024/03/18 03:58:22;;;;;;;0.20;0.20;;;17.00;77.60;;;;;;4989034;28;20038;-75
2024/03/18 04:00:49;;;;;;;0.05;0.05;;;17.00;77.50;;;;;;4988398;28;20046;-75
2024/03/18 04:03:24;;;;;;;0.20;0.20;;;17.00;77.60;;;;;;4988194;28;20085;-75
2024/03/18 04:05:51;;;;;;;0.22;0.22;;;17.00;77.60;;;;;;4969340;28;20047;-76
2024/03/18 04:08:17;;;;;;;0.17;0.17;;;17.00;77.60;;;;;;4983702;28;20414;-75
2024/03/18 04:10:42;;;;;;;0.17;0.17;;;17.00;77.60;;;;;;5002077;28;20515;-75
2024/03/18 04:13:09;;;;;;;2.55;0.75;;;17.00;77.50;;;;;;4988784;28;20437;-75
2024/03/18 04:15:35;;;;;;;0.10;0.10;;;17.00;77.60;;;;;;4983942;28;20054;-75
2024/03/18 04:18:01;;;;;;;0.10;0.10;;;17.00;77.50;;;;;;5003529;28;20043;-76
2024/03/18 04:20:27;;;;;;;0.30;0.30;;;17.00;77.60;;;;;;4986466;28;20530;-76
2024/03/18 04:22:53;;;;;;;0.55;0.10;;;17.00;77.50;;;;;;4985584;28;20030;-76
2024/03/18 04:25:19;;;;;;;0.10;0.10;;;17.00;77.50;;;;;;4987990;28;20120;-75
2024/03/18 04:27:48;;;;;;;0.15;0.15;;;17.00;77.50;;;;;;4988316;28;20038;-75
2024/03/18 04:30:18;;;;;;;0.10;0.10;;;17.00;77.50;;;;;;4989078;28;20046;-76
2024/03/18 04:32:44;;;;;;;0.10;0.10;;;17.00;78.30;;;;;;4986964;28;20101;-76
2024/03/18 04:35:11;;;;;;;0.10;0.10;;;17.00;77.50;;;;;;4983903;28;20474;-76
2024/03/18 04:37:45;;;;;;;0.10;0.10;;;17.00;77.60;;;;;;4987437;28;20078;-76
2024/03/18 04:40:12;;;;;;;1.77;0.28;;;17.00;77.60;;;;;;4985738;28;20125;-75
2024/03/18 04:42:39;;;;;;;0.13;0.10;;;17.00;77.50;;;;;;4989120;28;20141;-76
2024/03/18 04:45:05;;;;;;;0.13;0.13;;;17.00;77.50;;;;;;4986045;28;20408;-76
2024/03/18 04:47:31;;;;;;;0.10;0.10;;;17.00;77.50;;;;;;4985593;28;20053;-76
2024/03/18 04:49:56;;;;;;;0.10;0.10;;;17.00;77.60;;;;;;4988923;28;20408;-76
2024/03/18 04:52:22;;;;;;;0.20;0.20;;;17.00;77.60;;;;;;4987441;28;20074;-76
2024/03/18 04:54:47;;;;;;;0.10;0.10;;;17.00;77.50;;;;;;4986070;28;20046;-76
2024/03/18 04:57:13;;;;;;;0.40;0.10;;;17.00;77.50;;;;;;4984898;28;20512;-76
2024/03/18 04:59:39;;;;;;;0.10;0.10;;;17.00;77.50;;;;;;4985220;28;20050;-76
2024/03/18 05:02:05;;;;;;;0.10;0.10;;;17.00;77.50;;;;;;4982127;28;20034;-76
2024/03/18 05:04:31;;;;;;;0.40;0.40;;;17.00;77.40;;;;;;4982981;28;20096;-76
2024/03/18 05:06:57;;;;;;;0.10;0.10;;;17.00;77.40;;;;;;4982501;28;20045;-76
2024/03/18 05:09:23;;;;;;;0.28;0.20;;;17.00;77.40;;;;;;4983683;28;20058;-76
2024/03/18 05:11:49;;;;;;;0.30;0.10;;;17.00;77.40;;;;;;4967835;28;20525;-76
2024/03/18 05:14:15;;;;;;;0.10;0.10;;;17.00;77.40;;;;;;4966549;28;20568;-76
2024/03/18 05:16:40;;;;;;;0.20;0.10;;;17.00;77.40;;;;;;4966827;28;20049;-76
2024/03/18 05:19:06;;;;;;;0.15;0.15;;;17.00;77.40;;;;;;4982847;28;20077;-76
2024/03/18 05:21:32;;;;;;;0.20;0.20;;;17.00;77.30;;;;;;4965859;28;20054;-76
2024/03/18 05:23:58;;;;;;;0.15;0.10;;;16.90;77.30;;;;;;4966882;28;20046;-77
2024/03/18 05:26:23;;;;;;;0.20;0.15;;;17.00;77.40;;;;;;4982982;28;20058;-75
2024/03/18 05:28:49;;;;;;;0.10;0.10;;;16.90;77.30;;;;;;4968128;28;20097;-75
2024/03/18 05:31:15;;;;;;;0.20;0.20;;;16.90;77.30;;;;;;4986982;28;20042;-76
2024/03/18 05:33:40;;;;;;;0.13;0.10;;;16.90;77.30;;;;;;4985872;28;20038;-75
2024/03/18 05:36:06;;;;;;;0.20;0.20;;;16.90;77.30;;;;;;4983614;28;20571;-76
2024/03/18 05:38:32;;;;;;;0.22;0.20;;;16.90;77.20;;;;;;4983392;28;20058;-75
2024/03/18 05:40:57;;;;;;;0.20;0.20;;;16.90;77.20;;;;;;4983300;28;20096;-76
2024/03/18 05:43:24;;;;;;;0.20;0.20;;;17.00;77.20;;;;;;4964659;28;20516;-76
2024/03/18 05:45:49;;;;;;;0.68;0.13;;;16.90;77.10;;;;;;4963631;28;20523;-76
2024/03/18 05:48:15;;;;;;;0.95;0.30;;;17.00;77.10;;;;;;4968270;28;20073;-76
2024/03/18 05:50:40;;;;;;;0.20;0.20;;;17.00;78.00;;;;;;4985425;28;20026;-76
2024/03/18 05:53:06;;;;;;;0.13;0.13;;;17.00;77.20;;;;;;4985219;28;20109;-76
2024/03/18 05:55:32;;;;;;;0.10;0.10;;;17.00;77.20;;;;;;5001793;28;20034;-76
2024/03/18 05:58:02;;;;;;;1.20;0.10;;;17.00;77.20;;;;;;4969364;28;20069;-76
2024/03/18 06:00:31;;;;;;;0.10;0.10;;;16.90;77.30;;;;;;4979657;28;20624;-76
2024/03/18 06:02:56;;;;;;;0.57;0.50;;;16.90;77.20;;;;;;4964978;28;20043;-76
2024/03/18 06:05:22;;;;;;;0.20;0.10;;;16.90;77.20;;;;;;4952305;28;20031;-76
2024/03/18 06:07:48;;;;;;;0.20;0.20;;;16.90;77.20;;;;;;4983046;28;20046;-76
2024/03/18 06:10:14;;;;;;;0.10;0.10;;;16.90;77.20;;;;;;4977810;28;20073;-76
2024/03/18 06:12:40;;;;;;;0.20;0.20;;;16.90;77.10;;;;;;4967997;28;20038;-76
2024/03/18 06:15:07;;;;;;;0.10;0.10;;;16.90;77.20;;;;;;4961518;28;20045;-76
2024/03/18 06:17:32;;;;;;;0.25;0.10;;;17.00;77.20;;;;;;4985556;28;20495;-76
2024/03/18 06:19:58;;;;;;;0.10;0.10;;;17.00;77.20;;;;;;4966274;28;20023;-76
2024/03/18 06:22:26;;;;;;;0.17;0.10;;;16.90;77.10;;;;;;4948445;28;20126;-76
2024/03/18 06:27:37;;;;;;;0.20;0.20;;;17.00;77.10;;;;;;4983914;28;20104;-76
2024/03/18 06:30:02;;;;;;;0.10;0.10;;;17.00;77.10;;;;;;4967689;28;20046;-76
2024/03/18 06:32:28;;;;;;;0.10;0.10;;;17.00;77.10;;;;;;4979796;28;20094;-76
2024/03/18 06:34:54;;;;;;;0.20;0.17;;;17.00;77.20;;;;;;4945149;28;20043;-77
2024/03/18 06:37:19;;;;;;;0.20;0.20;;;17.00;77.10;;;;;;4983091;28;20504;-77
2024/03/18 06:39:45;;;;;;;1.55;0.10;;;17.00;77.10;;;;;;4983288;28;20057;-77
2024/03/18 06:42:11;;;;;;;0.10;0.10;;;17.00;77.30;;;;;;4985208;28;20409;-77
2024/03/18 06:44:42;;;;;;;0.20;0.20;;;17.00;78.50;;;;;;4985869;28;20050;-78
2024/03/18 06:47:08;;;;;;;0.20;0.17;;;17.00;79.00;;;;;;4984304;28;20034;-77
2024/03/18 06:49:36;;;;;;;0.88;0.20;;;17.00;78.90;;;;;;5000778;28;20034;-77
2024/03/18 06:52:02;;;;;;;0.50;0.40;;;17.00;79.20;;;;;;4981780;28;20407;-78
2024/03/18 06:54:28;;;;;;;0.85;0.15;;;17.00;79.30;;;;;;4987456;28;20042;-78
2024/03/18 06:56:53;;;;;;;2.08;0.35;;;17.10;79.40;;;;;;4983855;28;20039;-77
2024/03/18 06:59:19;;;;;;;0.65;0.35;;;17.10;79.50;;;;;;4979837;28;20052;-78
2024/03/18 07:01:44;;;;;;;0.45;0.30;;;17.10;79.30;;;;;;4981804;28;20042;-77
2024/03/18 07:04:10;;;;;;;0.30;0.30;;;17.10;78.80;;;;;;4980626;28;20161;-77
2024/03/18 07:06:36;;;;;;;0.47;0.30;;;17.10;78.80;;;;;;4968771;28;20046;-77
2024/03/18 07:09:02;;;;;;;0.30;0.30;;;17.20;78.60;;;;;;4984799;28;20434;-77
2024/03/18 07:11:27;;;;;;;0.30;0.17;;;17.20;78.50;;;;;;4983161;28;20039;-77
2024/03/18 07:13:53;;;;;;;0.73;0.35;;;17.20;78.50;;;;;;4968831;28;20168;-76
2024/03/18 07:16:19;;;;;;;0.77;0.30;;;17.20;78.80;;;;;;4987092;28;20514;-76
2024/03/18 07:18:44;;;;;;;0.65;0.30;;;17.20;78.60;;;;;;4989808;28;20070;-76
2024/03/18 07:21:11;;;;;;;0.88;0.32;;;17.20;78.70;;;;;;4990246;28;20042;-76
2024/03/18 07:23:37;;;;;;;0.38;0.20;;;17.10;78.80;;;;;;4988035;28;20041;-76
2024/03/18 07:26:04;;;;;;;0.28;0.13;;;17.10;79.00;;;;;;5003931;28;20125;-76
2024/03/18 07:28:33;;;;;;;1.75;0.43;;;17.10;79.20;;;;;;4983583;28;20038;-76
2024/03/18 07:30:59;;;;;;;0.30;0.22;;;17.10;79.20;;;;;;4985791;28;20384;-76
2024/03/18 07:33:25;;;;;;;0.52;0.30;;;17.10;79.10;;;;;;4986758;28;20034;-76
2024/03/18 07:35:51;;;;;;;0.65;0.22;;;17.10;79.10;;;;;;4988101;28;20048;-76
2024/03/18 07:38:16;;;;;;;0.90;0.30;;;17.10;79.20;;;;;;4988531;28;20124;-76
2024/03/18 07:40:42;;;;;;;0.25;0.20;;;17.10;79.10;;;;;;4971885;28;20082;-76
2024/03/18 07:43:11;;;;;;;0.43;0.20;;;17.10;79.00;;;;;;4985938;28;20105;-76
2024/03/18 07:45:38;;;;;;;0.90;0.20;;;17.10;79.10;;;;;;4988569;28;20042;-76
2024/03/18 07:48:05;;;;;;;0.55;0.38;;;17.10;78.80;;;;;;4987843;28;20050;-76
2024/03/18 07:50:35;;;;;;;0.32;0.30;;;17.10;78.80;;;;;;4987772;28;20046;-76
2024/03/18 07:53:04;;;;;;;0.25;0.20;;;17.10;78.80;;;;;;4988648;28;20051;-76
2024/03/18 07:55:30;;;;;;;0.15;0.13;;;17.10;78.70;;;;;;4971669;28;20045;-76
2024/03/18 07:57:55;;;;;;;0.85;0.28;;;17.10;79.60;;;;;;4988887;28;20403;-76
2024/03/18 08:00:21;;;;;;;0.10;0.10;;;17.10;78.70;;;;;;4996353;28;20037;-76
2024/03/18 08:02:46;;;;;;;0.38;0.20;;;17.10;78.60;;;;;;4989825;28;20100;-76
2024/03/18 08:05:12;;;;;;;0.10;0.10;;;17.10;78.60;;;;;;4973361;28;20062;-76
2024/03/18 08:07:41;;;;;;;0.30;0.20;;;17.10;79.30;;;;;;4988011;28;20049;-76
2024/03/18 08:10:07;;;;;;;0.10;0.10;;;17.10;78.50;;;;;;4986421;28;20420;-76
2024/03/18 08:12:32;;;;;;;0.20;0.10;;;17.10;78.40;;;;;;4957230;28;20058;-76
2024/03/18 08:14:58;;;;;;;0.20;0.20;;;17.10;78.40;;;;;;4988152;28;20039;-76
2024/03/18 08:17:24;;;;;;;1.58;0.30;;;17.10;78.50;;;;;;4985355;28;20039;-76
2024/03/18 08:19:49;;;;;;;0.28;0.25;;;17.10;78.40;;;;;;4990088;28;20508;-76
2024/03/18 08:22:18;;;;;;;0.28;0.20;;;17.10;78.40;;;;;;4988361;28;20108;-76
2024/03/18 08:24:46;;;;;;;0.40;0.10;;;17.10;78.30;;;;;;4988921;28;20046;-76
2024/03/18 08:27:12;;;;;;;0.30;0.20;;;17.10;78.20;;;;;;4989298;28;20100;-76
2024/03/18 08:29:37;;;;;;;0.10;0.10;;;17.10;78.10;;;;;;4987387;28;20049;-76
2024/03/18 08:32:03;;;;;;;0.25;0.20;;;17.10;78.10;;;;;;4987061;28;20027;-76
2024/03/18 08:34:29;;;;;;;0.90;0.20;;;17.10;78.00;;;;;;4970260;28;20599;-76
2024/03/18 08:36:55;;;;;;;0.17;0.10;;;17.10;78.00;;;;;;4954877;28;20089;-76
2024/03/18 08:39:21;;;;;;;0.20;0.20;;;17.20;77.90;;;;;;4986571;28;20504;-76
2024/03/18 08:41:47;;;;;;;0.38;0.20;;;17.20;77.80;;;;;;4984746;28;20038;-76
2024/03/18 08:44:12;;;;;;;0.17;0.10;;;17.20;77.70;;;;;;4987709;28;20500;-76
2024/03/18 08:46:40;;;;;;;0.10;0.10;;;17.20;77.70;;;;;;5003610;28;20045;-76
2024/03/18 08:49:07;;;;;;;0.60;0.20;;;17.20;77.40;;;;;;4989261;28;20069;-76
2024/03/18 08:51:33;;;;;;;0.82;0.20;;;17.20;77.30;;;;;;4987252;28;20093;-76
2024/03/18 08:53:59;;;;;;;0.35;0.30;;;17.20;77.20;;;;;;4989245;28;20042;-76
2024/03/18 08:56:24;;;;;;;0.52;0.30;;;17.30;77.00;;;;;;4969679;28;20129;-76
2024/03/18 08:58:50;;;;;;;0.20;0.10;;;17.20;77.80;;;;;;4970486;28;20039;-76
2024/03/18 09:01:16;;;;;;;0.98;0.20;;;17.20;77.20;;;;;;4985596;28;20527;-76
2024/03/18 09:03:41;;;;;;;0.10;0.10;;;17.20;77.30;;;;;;4986103;28;20412;-76
2024/03/18 09:06:08;;;;;;;0.30;0.20;;;17.20;77.40;;;;;;5003409;28;20042;-76
2024/03/18 09:08:34;;;;;;;0.35;0.20;;;17.20;77.30;;;;;;4988824;28;20039;-76
2024/03/18 09:10:59;;;;;;;0.10;0.10;;;17.20;77.10;;;;;;4984499;28;20112;-75
2024/03/18 09:13:25;;;;;;;0.60;0.22;;;17.20;77.10;;;;;;4970801;28;20062;-76
2024/03/18 09:15:50;;;;;;;0.20;0.10;;;17.20;76.90;;;;;;4986163;28;20132;-76
2024/03/18 09:18:17;;;;;;;0.40;0.10;;;17.20;76.90;;;;;;4986530;28;20053;-76
2024/03/18 09:20:42;;;;;;;0.95;0.30;;;17.20;76.90;;;;;;4986849;28;20063;-76
2024/03/18 09:23:08;;;;;;;0.13;0.13;;;17.30;76.90;;;;;;4968301;28;20140;-76
2024/03/18 09:25:35;;;;;;;1.38;0.20;;;17.30;76.80;;;;;;4969076;28;20192;-76
2024/03/18 09:28:01;;;;;;;0.32;0.13;;;17.30;76.60;;;;;;5003512;28;20528;-76
2024/03/18 09:30:27;;;;;;;0.35;0.32;;;17.40;76.50;;;;;;4985092;28;20058;-76
2024/03/18 09:32:53;;;;;;;0.85;0.10;;;17.40;76.00;;;;;;4979944;28;20054;-76
2024/03/18 09:35:19;;;;;;;0.35;0.20;;;17.50;75.90;;;;;;4962950;28;20038;-76
2024/03/18 09:37:45;;;;;;;0.22;0.10;;;17.50;75.80;;;;;;4979324;28;20050;-76
2024/03/18 09:40:11;;;;;;;0.20;0.10;;;17.50;76.30;;;;;;4954023;28;20042;-76
2024/03/18 09:42:37;;;;;;;0.20;0.20;;;17.60;75.40;;;;;;4985222;28;20512;-77
2024/03/18 09:45:03;;;;;;;0.13;0.10;;;17.60;75.30;;;;;;4987677;28;20034;-76
2024/03/18 09:47:31;;;;;;;0.28;0.20;;;17.60;75.20;;;;;;4969567;28;20046;-76
2024/03/18 09:49:57;;;;;;;0.10;0.10;;;17.60;75.20;;;;;;4965476;28;20133;-76
2024/03/18 09:52:23;;;;;;;0.28;0.10;;;17.60;75.00;;;;;;4986159;28;20121;-76
2024/03/18 09:54:50;;;;;;;0.05;0.05;;;17.60;74.90;;;;;;4985589;28;20038;-76
2024/03/18 09:57:18;;;;;;;0.17;0.15;;;17.60;74.90;;;;;;4985180;28;20041;-76
2024/03/18 09:59:44;;;;;;;0.30;0.10;;;17.50;74.90;;;;;;4988217;28;20699;-76
2024/03/18 10:02:13;;;;;;;0.13;0.10;;;17.50;74.90;;;;;;5000871;28;20146;-76
2024/03/18 10:04:39;;;;;;;0.47;0.30;;;17.50;75.10;;;;;;5002991;28;20042;-76
2024/03/18 10:07:07;;;;;;;0.10;0.10;;;17.50;75.10;;;;;;4953314;28;20041;-76
2024/03/18 10:09:32;;;;;;;0.10;0.10;;;17.50;75.10;;;;;;4967816;28;20046;-76
2024/03/18 10:11:58;;;;;;;0.35;0.20;;;17.50;75.30;;;;;;4985633;28;20034;-76
2024/03/18 10:14:24;;;;;;;0.10;0.00;;;17.50;75.20;;;;;;4968001;28;20030;-76
2024/03/18 10:16:50;;;;;;;0.10;0.10;;;17.50;75.20;;;;;;4983291;28;20078;-76
2024/03/18 10:19:16;;;;;;;0.10;0.10;;;17.50;76.20;;;;;;4983973;28;20125;-76
2024/03/18 10:21:42;;;;;;;0.13;0.10;;;17.50;75.60;;;;;;4965619;28;20173;-76
2024/03/18 10:24:10;;;;;;;0.20;0.15;;;17.50;75.50;;;;;;4985880;28;20042;-77
2024/03/18 10:26:36;;;;;;;0.20;0.20;;;17.50;75.30;;;;;;4969032;28;20120;-76
2024/03/18 10:29:02;;;;;;;0.20;0.15;;;17.50;75.20;;;;;;4983873;28;20042;-76
2024/03/18 10:31:29;;;;;;;0.20;0.10;;;17.60;75.30;;;;;;4982984;28;20506;-76
2024/03/18 10:33:55;;;;;;;0.22;0.10;;;17.60;75.10;;;;;;4984417;28;20027;-76
2024/03/18 10:36:28;;;;;;;0.20;0.10;;;17.60;75.10;;;;;;4951272;28;20038;-76
2024/03/18 10:39:08;;;;;;;0.10;0.10;;;17.60;75.00;;;;;;4985745;28;20050;-76
2024/03/18 10:41:38;;;;;;;0.20;0.10;;;17.60;75.00;;;;;;4985025;28;20039;-76
2024/03/18 10:44:22;;;;;;;0.20;0.13;;;17.70;74.90;;;;;;4984608;28;20070;-76
2024/03/18 10:46:48;;;;;;;;;;;17.70;74.80;;;;;;4969641;28;20775;-76
2024/03/18 10:49:17;;;;;;;0.20;0.20;;;17.70;74.80;;;;;;4983959;28;20478;-76
2024/03/18 10:51:46;;;;;;;0.20;0.10;;;17.70;74.60;;;;;;4998616;28;20483;-76
2024/03/18 10:54:13;;;;;;;0.30;0.20;;;17.70;74.60;;;;;;4985572;28;20042;-76
2024/03/18 10:56:39;;;;;;;0.10;0.10;;;17.70;74.50;;;;;;5002612;28;20061;-76
2024/03/18 10:59:04;;;;;;;0.10;0.10;;;17.70;74.60;;;;;;4979937;28;20043;-76
2024/03/18 11:01:30;;;;;;;0.10;0.10;;;17.70;74.40;;;;;;4966469;28;20467;-76
2024/03/18 11:03:55;;;;;;;0.10;0.10;;;17.70;74.50;;;;;;4985083;28;20475;-76
2024/03/18 11:06:21;;;;;;;0.20;0.10;;;17.70;74.40;;;;;;4983551;28;20096;-76
2024/03/18 11:08:49;;;;;;;0.10;0.10;;;17.70;74.40;;;;;;4986257;28;20093;-76
2024/03/18 11:11:15;;;;;;;0.17;0.10;;;17.70;74.50;;;;;;4967358;28;20050;-76
2024/03/18 11:13:42;;;;;;;0.08;0.08;;;17.70;74.60;;;;;;4982380;28;20058;-76
2024/03/18 11:16:13;;;;;;;0.20;0.13;;;17.70;74.50;;;;;;4997025;28;20051;-77
2024/03/18 11:18:44;;;;;;;0.98;0.15;;;17.70;74.40;;;;;;5000034;28;20058;-76
2024/03/18 11:21:16;;;;;;;0.30;0.10;;;17.70;74.60;;;;;;4983272;28;20463;-76
2024/03/18 11:23:42;;;;;;;0.10;0.10;;;17.70;74.50;;;;;;4980733;28;20138;-76
2024/03/18 11:26:10;;;;;;;0.20;0.20;;;17.70;74.50;;;;;;4964809;28;20133;-76
2024/03/18 11:28:41;;;;;;;0.22;0.10;;;17.70;74.50;;;;;;4969101;28;20050;-76
2024/03/18 11:31:08;;;;;;;0.10;0.10;;;17.70;74.30;;;;;;4986849;28;20077;-76
2024/03/18 11:33:38;;;;;;;0.10;0.10;;;17.70;74.40;;;;;;4983287;28;20085;-76
2024/03/18 11:36:04;;;;;;;0.32;0.30;;;17.70;74.50;;;;;;4988902;28;20084;-76
2024/03/18 11:38:30;;;;;;;1.08;0.13;;;17.70;74.50;;;;;;4988609;28;20423;-76
2024/03/18 11:40:55;;;;;;;0.13;0.13;;;17.70;74.50;;;;;;4971934;28;20593;-76
2024/03/18 11:43:21;;;;;;;0.38;0.00;;;17.70;74.40;;;;;;4986959;28;20054;-76
2024/03/18 11:45:48;;;;;;;0.10;0.10;;;17.70;74.40;;;;;;4988523;28;20130;-76
2024/03/18 11:48:14;;;;;;;0.25;0.10;;;17.60;74.40;;;;;;4987953;28;20046;-76
2024/03/18 11:50:39;;;;;;;1.00;0.10;;;17.60;74.50;;;;;;5005198;28;20034;-76
2024/03/18 11:53:09;;;;;;;0.10;0.10;;;17.60;74.50;;;;;;5004504;28;20038;-76
2024/03/18 11:55:36;;;;;;;0.08;0.03;;;17.60;74.40;;;;;;4985221;28;20042;-76
2024/03/18 11:58:03;;;;;;;0.63;0.10;;;17.60;74.60;;;;;;5005466;28;20145;-76
2024/03/18 12:00:32;;;;;;;0.30;0.10;;;17.60;74.60;;;;;;4986543;28;20050;-76
2024/03/18 12:02:59;;;;;;;0.17;0.10;;;17.60;74.50;;;;;;5003953;28;20048;-76
2024/03/18 12:05:25;;;;;;;0.45;0.15;;;17.60;74.40;;;;;;4987829;28;20117;-76
2024/03/18 12:07:51;;;;;;;0.20;0.10;;;17.60;74.40;;;;;;4971374;28;20054;-76
2024/03/18 12:10:19;;;;;;;0.00;0.00;;;17.60;74.30;;;;;;4986025;28;20042;-76
2024/03/18 12:12:44;;;;;;;0.13;0.10;;;17.60;74.40;;;;;;4988148;28;20049;-76
2024/03/18 12:15:10;;;;;;;0.17;0.10;;;17.60;74.40;;;;;;4985139;28;20030;-76
2024/03/18 12:17:36;;;;;;;0.17;0.08;;;17.60;74.50;;;;;;4985811;28;20510;-76
2024/03/18 12:20:03;;;;;;;0.05;0.00;;;17.60;74.60;;;;;;4987122;28;20157;-76
2024/03/18 12:22:29;;;;;;;0.20;0.10;;;17.50;74.50;;;;;;4987123;28;20534;-76
2024/03/18 12:30:31;;;;;;;0.30;0.10;;;17.50;74.40;;;;;;4983055;28;20036;-77
2024/03/18 12:32:57;;;;;;;0.93;0.15;;;17.50;74.40;;;;;;4989120;28;20097;-76
2024/03/18 12:35:23;;;;;;;0.17;0.17;;;17.60;74.70;;;;;;4986716;28;20046;-76
2024/03/18 12:37:49;;;;;;;0.20;0.20;;;17.60;74.50;;;;;;4983532;28;20519;-76
2024/03/18 12:40:16;;;;;;;0.13;0.10;;;17.70;74.30;;;;;;4969596;28;20126;-76
2024/03/18 12:42:48;;;;;;;0.10;0.10;;;17.60;74.20;;;;;;5002092;28;20038;-76
2024/03/18 12:45:13;;;;;;;0.30;0.20;;;17.70;73.90;;;;;;4985032;28;20034;-76
2024/03/18 12:47:39;;;;;;;0.25;0.25;;;17.70;74.30;;;;;;4987315;28;20039;-76
2024/03/18 12:50:05;;;;;;;0.30;0.30;;;17.70;74.30;;;;;;4970160;28;20039;-76
2024/03/18 12:52:32;;;;;;;1.73;0.20;;;17.70;74.70;;;;;;4986482;28;20053;-76
2024/03/18 12:54:58;;;;;;;0.30;0.30;;;17.60;74.80;;;;;;4989111;28;20035;-76